Nassauborg — PHDU — position and weather

sailwx.info

Track history (hours):
 
Tides and Currents Weather Stations Pressure Air Temp Water Temp Dewpoint Dewpoint Depression Visibility Wind Speed Wind Dir Waves Ship Positions

Nassauborg

Ship's website: http://www.wagenborg.com/index.cfm?pid=37&itemid=158&contentitemid=236

Last reported at 2017-Dec-16 04:12 UTC. Time now 2017-Dec-17 10:17 UTC.
Position N 60°28' E 019°02'.

Length 143 m; beam 22 m.

Type: Ship. MMSI: 246430000.

Date/timePositionNaut miles runAvg speedWind from/ knotsBaromVisibWave heightAir tempDewpointWater temp
2017-Dec-16 04:12N 60°28' E 019°02'2 8.9
2017-Dec-16 03:57N 60°25' E 019°01'4 9.0
2017-Dec-16 03:30N 60°21' E 019°01'4 8.9
2017-Dec-16 03:00N 60°17' E 019°02'5 9.3
2017-Dec-16 02:29N 60°12' E 019°05'5 9.4
2017-Dec-16 01:58N 60°08' E 019°11'4 9.5
2017-Dec-16 01:30N 60°05' E 019°16'5 9.4
2017-Dec-16 01:00N 60°01' E 019°22'10 9.2
2017-Dec-15 23:54N 59°54' E 019°35'4 9.1
2017-Dec-15 23:29N 59°51' E 019°40'256 8.8
2017-Dec-14 18:24N 55°57' E 016°24'4 9.7
2017-Dec-14 18:00N 55°55' E 016°18'5 9.5
2017-Dec-14 17:30N 55°53' E 016°11'5 9.6
2017-Dec-14 17:00N 55°50' E 016°03'5 9.5
2017-Dec-14 16:30N 55°48' E 015°56'5 9.4
2017-Dec-14 16:00N 55°46' E 015°49'10 9.7
2017-Dec-14 15:00N 55°41' E 015°34'5 9.9
2017-Dec-14 14:30N 55°39' E 015°26'510.0
2017-Dec-14 13:59N 55°36' E 015°18'7 9.8
2017-Dec-14 13:16N 55°33' E 015°07'3 9.9
2017-Dec-14 13:00N 55°31' E 015°03'5 9.9
2017-Dec-14 12:30N 55°29' E 014°55'5 9.9
2017-Dec-14 12:00N 55°27' E 014°48'5 9.7
2017-Dec-14 11:30N 55°24' E 014°40'5 9.5
2017-Dec-14 11:00N 55°21' E 014°35'5 9.5
2017-Dec-14 10:30N 55°17' E 014°30'5 9.4
2017-Dec-14 10:00N 55°13' E 014°25'5 9.5
2017-Dec-14 09:30N 55°09' E 014°20'7 9.5
2017-Dec-14 08:46N 55°04' E 014°12'3 9.6
2017-Dec-14 08:29N 55°02' E 014°09'5 9.9
2017-Dec-14 07:57N 54°60' E 014°01'810.2
2017-Dec-14 07:08N 54°57' E 013°47'210.8
2017-Dec-14 06:57N 54°56' E 013°44'32 9.9
2017-Dec-14 03:43N 54°46' E 012°51'9 9.2
2017-Dec-14 02:46N 54°42' E 012°37'3 9.7
2017-Dec-14 02:30N 54°41' E 012°33'7 9.8
2017-Dec-14 01:46N 54°37' E 012°23'3 9.7
2017-Dec-14 01:30N 54°36' E 012°19'510.0
2017-Dec-14 01:00N 54°31' E 012°16'5 9.9
2017-Dec-14 00:30N 54°27' E 012°13'5 9.0
2017-Dec-14 00:00N 54°24' E 012°07'12 9.7
2017-Dec-13 22:47N 54°25' E 011°47'3 9.5
2017-Dec-13 22:30N 54°26' E 011°43'5 9.5
2017-Dec-13 22:00N 54°28' E 011°35'5 9.5
2017-Dec-13 21:30N 54°30' E 011°28'5 9.7
2017-Dec-13 21:00N 54°32' E 011°20'5 9.8
2017-Dec-13 20:30N 54°34' E 011°13'5 9.6
2017-Dec-13 20:00N 54°37' E 011°06'5 9.1
2017-Dec-13 19:30N 54°39' E 010°59'4 8.9
2017-Dec-13 19:00N 54°42' E 010°53'4 8.1
2017-Dec-13 18:30N 54°46' E 010°52'4 8.0
2017-Dec-13 18:00N 54°50' E 010°52'4 7.9
2017-Dec-13 17:30N 54°54' E 010°53'4 7.6
2017-Dec-13 17:00N 54°57' E 010°56'4 7.9
2017-Dec-13 16:30N 54°60' E 011°01'4 8.5
2017-Dec-13 16:00N 55°04' E 011°02'4 8.4
2017-Dec-13 15:30N 55°08' E 011°02'4 7.8
2017-Dec-13 14:56N 55°12' E 011°06'110 7.3
2017-Dec-12 23:59N 56°60' E 011°42'4 8.3
2017-Dec-12 23:29N 57°04' E 011°40'4 8.2
2017-Dec-12 23:00N 57°08' E 011°37'4 8.4
2017-Dec-12 22:30N 57°12' E 011°35'4 8.4
2017-Dec-12 22:00N 57°16' E 011°32'4 8.6
2017-Dec-12 21:30N 57°20' E 011°29'4 8.7
2017-Dec-12 21:00N 57°24' E 011°26'4 8.7
2017-Dec-12 20:30N 57°28' E 011°23'4 8.8
2017-Dec-12 20:00N 57°31' E 011°17'4 8.8
2017-Dec-12 19:30N 57°33' E 011°10'5 9.1
2017-Dec-12 19:00N 57°35' E 011°02'5 9.2
2017-Dec-12 18:31N 57°36' E 010°55'5 9.3
2017-Dec-12 18:00N 57°38' E 010°46'5 9.5
2017-Dec-12 17:30N 57°40' E 010°38'1 1.9
2017-Dec-12 16:51N 57°40' E 010°36'0 0.1
2017-Dec-12 16:24N 57°40' E 010°36'0 0.1
2017-Dec-12 16:00N 57°40' E 010°36'0 0.1
2017-Dec-12 15:30N 57°40' E 010°36'0 0.0
2017-Dec-12 14:42N 57°40' E 010°36'0 0.1
2017-Dec-12 14:23N 57°40' E 010°36'0 0.0
2017-Dec-12 13:59N 57°40' E 010°36'0 0.1
2017-Dec-12 13:30N 57°40' E 010°36'1 2.3
2017-Dec-12 13:00N 57°40' E 010°38'5 9.9
2017-Dec-12 12:30N 57°44' E 010°44'4 7.3
2017-Dec-12 11:56N 57°47' E 010°39'197 8.7
2017-Dec-11 13:17N 55°26' E 006°28'810.6
2017-Dec-11 12:33N 55°20' E 006°22'010.7
2017-Dec-11 12:31N 55°19' E 006°21'510.8
2017-Dec-11 12:00N 55°14' E 006°17'510.7
2017-Dec-11 11:31N 55°10' E 006°12'510.7
2017-Dec-11 11:00N 55°05' E 006°07'9810.8
2017-Dec-11 01:54N 53°38' E 004°51'511.0
2017-Dec-11 01:28N 53°33' E 004°48'510.9
2017-Dec-11 01:00N 53°29' E 004°45'611.0
2017-Dec-11 00:30N 53°23' E 004°42'1411.8
2017-Dec-10 23:20N 53°11' E 004°32'412.4
2017-Dec-10 23:00N 53°07' E 004°28'612.4
2017-Dec-10 22:30N 53°02' E 004°23'611.7
2017-Dec-10 22:00N 52°57' E 004°19'611.8
2017-Dec-10 21:30N 52°52' E 004°14'611.6
2017-Dec-10 21:00N 52°47' E 004°09'611.4
2017-Dec-10 20:30N 52°42' E 004°03'7910.4
2017-Dec-10 12:50N 51°45' E 002°34'410.8
2017-Dec-10 12:27N 51°42' E 002°30'511.0
2017-Dec-10 12:00N 51°38' E 002°25'611.3
2017-Dec-10 11:30N 51°33' E 002°19'611.2
2017-Dec-10 10:59N 51°28' E 002°14'511.1
2017-Dec-10 10:30N 51°23' E 002°12'510.5
2017-Dec-10 10:00N 51°19' E 002°07'611.0
2017-Dec-10 09:30N 51°14' E 002°03'610.9
2017-Dec-10 09:00N 51°11' E 001°55'511.1
2017-Dec-10 08:30N 51°08' E 001°48'611.8
2017-Dec-10 08:01N 51°04' E 001°42'612.3
2017-Dec-10 07:30N 50°59' E 001°35'712.7
2017-Dec-10 06:59N 50°54' E 001°28'7011.2
2017-Dec-10 00:43N 50°17' W 000°05'20511.1
2017-Dec-09 06:09N 49°00' W 004°60'212.2
2017-Dec-09 05:59N 48°59' W 005°02'611.9
2017-Dec-09 05:28N 48°56' W 005°10'611.6
2017-Dec-09 04:56N 48°53' W 005°18'511.4
2017-Dec-09 04:30N 48°50' W 005°25'1010.7
2017-Dec-09 03:35N 48°45' W 005°37'110.5
2017-Dec-09 03:27N 48°44' W 005°38'  
2017-Dec-06 20:35N 39°32' W 009°50'  
Track history (hours):
 
Tides and Currents Weather Stations Pressure Air Temp Water Temp Dewpoint Dewpoint Depression Visibility Wind Speed Wind Dir Waves Ship Positions

Nassauborg

Ship's website: http://www.wagenborg.com/index.cfm?pid=37&itemid=158&contentitemid=236

Last reported at 2017-Dec-16 04:12 UTC. Time now 2017-Dec-17 10:17 UTC.
Position N 60°28' E 019°02'.

Length 143 m; beam 22 m.

Type: Ship. MMSI: 246430000.

Date/timePositionNaut miles runAvg speedWind from/ knotsBaromVisibWave heightAir tempDewpointWater temp
2017-Dec-16 04:12N 60°28' E 019°02'2 8.9
2017-Dec-16 03:57N 60°25' E 019°01'4 9.0
2017-Dec-16 03:30N 60°21' E 019°01'4 8.9
2017-Dec-16 03:00N 60°17' E 019°02'5 9.3
2017-Dec-16 02:29N 60°12' E 019°05'5 9.4
2017-Dec-16 01:58N 60°08' E 019°11'4 9.5
2017-Dec-16 01:30N 60°05' E 019°16'5 9.4
2017-Dec-16 01:00N 60°01' E 019°22'10 9.2
2017-Dec-15 23:54N 59°54' E 019°35'4 9.1
2017-Dec-15 23:29N 59°51' E 019°40'256 8.8
2017-Dec-14 18:24N 55°57' E 016°24'4 9.7
2017-Dec-14 18:00N 55°55' E 016°18'5 9.5
2017-Dec-14 17:30N 55°53' E 016°11'5 9.6
2017-Dec-14 17:00N 55°50' E 016°03'5 9.5
2017-Dec-14 16:30N 55°48' E 015°56'5 9.4
2017-Dec-14 16:00N 55°46' E 015°49'10 9.7
2017-Dec-14 15:00N 55°41' E 015°34'5 9.9
2017-Dec-14 14:30N 55°39' E 015°26'510.0
2017-Dec-14 13:59N 55°36' E 015°18'7 9.8
2017-Dec-14 13:16N 55°33' E 015°07'3 9.9
2017-Dec-14 13:00N 55°31' E 015°03'5 9.9
2017-Dec-14 12:30N 55°29' E 014°55'5 9.9
2017-Dec-14 12:00N 55°27' E 014°48'5 9.7
2017-Dec-14 11:30N 55°24' E 014°40'5 9.5
2017-Dec-14 11:00N 55°21' E 014°35'5 9.5
2017-Dec-14 10:30N 55°17' E 014°30'5 9.4
2017-Dec-14 10:00N 55°13' E 014°25'5 9.5
2017-Dec-14 09:30N 55°09' E 014°20'7 9.5
2017-Dec-14 08:46N 55°04' E 014°12'3 9.6
2017-Dec-14 08:29N 55°02' E 014°09'5 9.9
2017-Dec-14 07:57N 54°60' E 014°01'810.2
2017-Dec-14 07:08N 54°57' E 013°47'210.8
2017-Dec-14 06:57N 54°56' E 013°44'32 9.9
2017-Dec-14 03:43N 54°46' E 012°51'9 9.2
2017-Dec-14 02:46N 54°42' E 012°37'3 9.7
2017-Dec-14 02:30N 54°41' E 012°33'7 9.8
2017-Dec-14 01:46N 54°37' E 012°23'3 9.7
2017-Dec-14 01:30N 54°36' E 012°19'510.0
2017-Dec-14 01:00N 54°31' E 012°16'5 9.9
2017-Dec-14 00:30N 54°27' E 012°13'5 9.0
2017-Dec-14 00:00N 54°24' E 012°07'12 9.7
2017-Dec-13 22:47N 54°25' E 011°47'3 9.5
2017-Dec-13 22:30N 54°26' E 011°43'5 9.5
2017-Dec-13 22:00N 54°28' E 011°35'5 9.5
2017-Dec-13 21:30N 54°30' E 011°28'5 9.7
2017-Dec-13 21:00N 54°32' E 011°20'5 9.8
2017-Dec-13 20:30N 54°34' E 011°13'5 9.6
2017-Dec-13 20:00N 54°37' E 011°06'5 9.1
2017-Dec-13 19:30N 54°39' E 010°59'4 8.9
2017-Dec-13 19:00N 54°42' E 010°53'4 8.1
2017-Dec-13 18:30N 54°46' E 010°52'4 8.0
2017-Dec-13 18:00N 54°50' E 010°52'4 7.9
2017-Dec-13 17:30N 54°54' E 010°53'4 7.6
2017-Dec-13 17:00N 54°57' E 010°56'4 7.9
2017-Dec-13 16:30N 54°60' E 011°01'4 8.5
2017-Dec-13 16:00N 55°04' E 011°02'4 8.4
2017-Dec-13 15:30N 55°08' E 011°02'4 7.8
2017-Dec-13 14:56N 55°12' E 011°06'110 7.3
2017-Dec-12 23:59N 56°60' E 011°42'4 8.3
2017-Dec-12 23:29N 57°04' E 011°40'4 8.2
2017-Dec-12 23:00N 57°08' E 011°37'4 8.4
2017-Dec-12 22:30N 57°12' E 011°35'4 8.4
2017-Dec-12 22:00N 57°16' E 011°32'4 8.6
2017-Dec-12 21:30N 57°20' E 011°29'4 8.7
2017-Dec-12 21:00N 57°24' E 011°26'4 8.7
2017-Dec-12 20:30N 57°28' E 011°23'4 8.8
2017-Dec-12 20:00N 57°31' E 011°17'4 8.8
2017-Dec-12 19:30N 57°33' E 011°10'5 9.1
2017-Dec-12 19:00N 57°35' E 011°02'5 9.2
2017-Dec-12 18:31N 57°36' E 010°55'5 9.3
2017-Dec-12 18:00N 57°38' E 010°46'5 9.5
2017-Dec-12 17:30N 57°40' E 010°38'1 1.9
2017-Dec-12 16:51N 57°40' E 010°36'0 0.1
2017-Dec-12 16:24N 57°40' E 010°36'0 0.1
2017-Dec-12 16:00N 57°40' E 010°36'0 0.1
2017-Dec-12 15:30N 57°40' E 010°36'0 0.0
2017-Dec-12 14:42N 57°40' E 010°36'0 0.1
2017-Dec-12 14:23N 57°40' E 010°36'0 0.0
2017-Dec-12 13:59N 57°40' E 010°36'0 0.1
2017-Dec-12 13:30N 57°40' E 010°36'1 2.3
2017-Dec-12 13:00N 57°40' E 010°38'5 9.9
2017-Dec-12 12:30N 57°44' E 010°44'4 7.3
2017-Dec-12 11:56N 57°47' E 010°39'197 8.7
2017-Dec-11 13:17N 55°26' E 006°28'810.6
2017-Dec-11 12:33N 55°20' E 006°22'010.7
2017-Dec-11 12:31N 55°19' E 006°21'510.8
2017-Dec-11 12:00N 55°14' E 006°17'510.7
2017-Dec-11 11:31N 55°10' E 006°12'510.7
2017-Dec-11 11:00N 55°05' E 006°07'9810.8
2017-Dec-11 01:54N 53°38' E 004°51'511.0
2017-Dec-11 01:28N 53°33' E 004°48'510.9
2017-Dec-11 01:00N 53°29' E 004°45'611.0
2017-Dec-11 00:30N 53°23' E 004°42'1411.8
2017-Dec-10 23:20N 53°11' E 004°32'412.4
2017-Dec-10 23:00N 53°07' E 004°28'612.4
2017-Dec-10 22:30N 53°02' E 004°23'611.7
2017-Dec-10 22:00N 52°57' E 004°19'611.8
2017-Dec-10 21:30N 52°52' E 004°14'611.6
2017-Dec-10 21:00N 52°47' E 004°09'611.4
2017-Dec-10 20:30N 52°42' E 004°03'7910.4
2017-Dec-10 12:50N 51°45' E 002°34'410.8
2017-Dec-10 12:27N 51°42' E 002°30'511.0
2017-Dec-10 12:00N 51°38' E 002°25'611.3
2017-Dec-10 11:30N 51°33' E 002°19'611.2
2017-Dec-10 10:59N 51°28' E 002°14'511.1
2017-Dec-10 10:30N 51°23' E 002°12'510.5
2017-Dec-10 10:00N 51°19' E 002°07'611.0
2017-Dec-10 09:30N 51°14' E 002°03'610.9
2017-Dec-10 09:00N 51°11' E 001°55'511.1
2017-Dec-10 08:30N 51°08' E 001°48'611.8
2017-Dec-10 08:01N 51°04' E 001°42'612.3
2017-Dec-10 07:30N 50°59' E 001°35'712.7
2017-Dec-10 06:59N 50°54' E 001°28'7011.2
2017-Dec-10 00:43N 50°17' W 000°05'20511.1
2017-Dec-09 06:09N 49°00' W 004°60'212.2
2017-Dec-09 05:59N 48°59' W 005°02'611.9
2017-Dec-09 05:28N 48°56' W 005°10'611.6
2017-Dec-09 04:56N 48°53' W 005°18'511.4
2017-Dec-09 04:30N 48°50' W 005°25'1010.7
2017-Dec-09 03:35N 48°45' W 005°37'110.5
2017-Dec-09 03:27N 48°44' W 005°38'  
2017-Dec-06 20:35N 39°32' W 009°50'  

Dump ship's entire track history